createdAt,value
2022-10-10T00:01:33.823Z,11.64
2022-10-10T00:04:05.978Z,11.65
2022-10-10T00:06:34.598Z,11.65
2022-10-10T00:09:05.331Z,11.65
2022-10-10T00:11:34.679Z,11.63
2022-10-10T00:14:03.038Z,11.62
2022-10-10T00:16:32.083Z,11.60
2022-10-10T00:19:00.425Z,11.57
2022-10-10T00:21:31.145Z,11.52
2022-10-10T00:24:01.072Z,11.50
2022-10-10T00:26:30.036Z,11.52
2022-10-10T00:28:58.462Z,11.47
2022-10-10T00:31:27.716Z,11.40
2022-10-10T00:33:56.038Z,11.33
2022-10-10T00:36:25.108Z,11.24
2022-10-10T00:38:54.949Z,11.29
2022-10-10T00:41:24.566Z,11.30
2022-10-10T00:44:08.769Z,11.32
2022-10-10T00:46:37.896Z,11.31
2022-10-10T00:49:13.268Z,11.32
2022-10-10T00:51:43.221Z,11.27
2022-10-10T00:54:17.294Z,11.23
2022-10-10T00:56:49.870Z,11.22
2022-10-10T00:59:21.361Z,11.19
2022-10-10T01:01:50.131Z,11.18
2022-10-10T01:04:35.267Z,11.17
2022-10-10T01:07:08.262Z,11.10
2022-10-10T01:09:41.940Z,10.90
2022-10-10T01:12:21.645Z,10.90
2022-10-10T01:15:01.523Z,10.81
2022-10-10T01:17:34.311Z,10.76
2022-10-10T01:20:28.036Z,10.82
2022-10-10T01:23:13.562Z,10.82
2022-10-10T01:25:58.751Z,10.87
2022-10-10T01:28:39.349Z,10.90
2022-10-10T01:31:11.546Z,10.89
2022-10-10T01:33:50.521Z,10.90
2022-10-10T01:36:24.428Z,10.90
2022-10-10T01:39:00.166Z,10.85
2022-10-10T01:41:35.443Z,10.78
2022-10-10T01:44:05.899Z,10.69
2022-10-10T01:46:35.266Z,10.66
2022-10-10T01:49:04.505Z,10.56
2022-10-10T01:51:49.470Z,10.61
2022-10-10T01:54:33.321Z,10.57
2022-10-10T01:57:15.179Z,10.57
2022-10-10T02:00:04.431Z,10.58
2022-10-10T02:02:42.947Z,10.55
2022-10-10T02:05:19.211Z,10.55
2022-10-10T02:07:51.939Z,10.52
2022-10-10T02:10:25.076Z,10.44
2022-10-10T02:12:55.541Z,10.38
2022-10-10T02:15:29.983Z,10.21
2022-10-10T02:17:58.922Z,10.20
2022-10-10T02:20:31.075Z,10.25
2022-10-10T02:23:00.132Z,10.28
2022-10-10T02:25:30.976Z,10.28
2022-10-10T02:28:09.973Z,10.25
2022-10-10T02:30:45.118Z,10.28
2022-10-10T02:33:16.981Z,10.28
2022-10-10T02:35:49.405Z,10.28
2022-10-10T02:38:19.794Z,10.23
2022-10-10T02:40:50.168Z,10.19
2022-10-10T02:43:20.126Z,10.13
2022-10-10T02:45:50.126Z,10.13
2022-10-10T02:48:18.722Z,10.12
2022-10-10T02:50:47.195Z,10.09
2022-10-10T02:53:15.669Z,10.00
2022-10-10T02:55:44.056Z,9.94
2022-10-10T02:58:13.296Z,9.86
2022-10-10T03:00:42.171Z,9.86
2022-10-10T03:03:11.934Z,9.80
2022-10-10T03:05:40.758Z,9.76
2022-10-10T03:08:11.819Z,9.68
2022-10-10T03:10:41.776Z,9.65
2022-10-10T03:13:10.130Z,9.46
2022-10-10T03:15:39.129Z,9.53
2022-10-10T03:18:07.921Z,9.61
2022-10-10T03:20:37.667Z,9.55
2022-10-10T03:23:06.625Z,9.59
2022-10-10T03:25:35.866Z,9.63
2022-10-10T03:28:04.981Z,9.60
2022-10-10T03:30:34.171Z,9.60
2022-10-10T03:33:02.537Z,9.48
2022-10-10T03:35:31.387Z,9.42
2022-10-10T03:38:01.482Z,9.43
2022-10-10T03:40:31.558Z,9.38
2022-10-10T03:42:59.950Z,9.42
2022-10-10T03:45:29.047Z,9.39
2022-10-10T03:47:57.781Z,9.33
2022-10-10T03:50:26.595Z,9.26
2022-10-10T03:52:55.046Z,9.30
2022-10-10T03:55:25.591Z,9.32
2022-10-10T03:57:54.201Z,9.11
2022-10-10T04:00:22.550Z,9.35
2022-10-10T04:02:51.931Z,9.28
2022-10-10T04:05:20.913Z,9.29
2022-10-10T04:07:49.471Z,9.34
2022-10-10T04:10:18.599Z,9.37
2022-10-10T04:12:49.094Z,9.34
2022-10-10T04:15:18.178Z,9.33
2022-10-10T04:17:46.678Z,9.31
2022-10-10T04:20:15.847Z,9.29
2022-10-10T04:22:44.182Z,9.26
2022-10-10T04:25:13.208Z,9.19
2022-10-10T04:27:41.724Z,9.24
2022-10-10T04:30:13.620Z,9.16
2022-10-10T04:32:42.061Z,9.27
2022-10-10T04:35:11.523Z,9.34
2022-10-10T04:37:40.105Z,9.36
2022-10-10T04:40:10.430Z,9.43
2022-10-10T04:42:39.208Z,9.42
2022-10-10T04:45:08.938Z,9.49
2022-10-10T04:47:39.125Z,9.44
2022-10-10T04:50:08.393Z,9.37
2022-10-10T04:52:36.862Z,9.39
2022-10-10T04:55:06.704Z,9.47
2022-10-10T04:57:35.172Z,9.47
2022-10-10T05:00:05.338Z,9.44
2022-10-10T05:02:33.975Z,9.53
2022-10-10T05:05:04.349Z,9.57
2022-10-10T05:07:33.126Z,9.56
2022-10-10T05:10:01.519Z,9.53
2022-10-10T05:12:30.337Z,9.51
2022-10-10T05:14:58.819Z,9.58
2022-10-10T05:17:27.175Z,9.63
2022-10-10T05:19:55.984Z,9.72
2022-10-10T05:22:26.175Z,9.73
2022-10-10T05:24:54.525Z,9.78
2022-10-10T05:27:23.386Z,9.76
2022-10-10T05:29:51.717Z,9.79
2022-10-10T05:32:20.211Z,9.77
2022-10-10T05:34:49.159Z,9.65
2022-10-10T05:37:18.047Z,9.65
2022-10-10T05:39:53.735Z,9.69
2022-10-10T05:42:23.448Z,9.65
2022-10-10T05:44:52.395Z,9.59
2022-10-10T05:47:25.406Z,9.64
2022-10-10T05:49:56.003Z,9.66
2022-10-10T05:52:25.223Z,9.71
2022-10-10T05:54:55.117Z,9.75
2022-10-10T05:57:23.840Z,9.77
2022-10-10T05:59:52.681Z,9.75
2022-10-10T06:02:21.212Z,9.78
2022-10-10T06:04:50.045Z,9.72
2022-10-10T06:07:18.410Z,9.76
2022-10-10T06:09:47.495Z,9.82
2022-10-10T06:12:17.637Z,9.77
2022-10-10T06:14:46.518Z,9.74
2022-10-10T06:17:15.677Z,9.77
2022-10-10T06:19:44.172Z,9.88
2022-10-10T06:22:12.504Z,9.97
2022-10-10T06:24:41.278Z,9.97
2022-10-10T06:27:09.812Z,9.93
2022-10-10T06:29:40.126Z,10.01
2022-10-10T06:32:08.540Z,10.04
2022-10-10T06:34:37.754Z,10.05
2022-10-10T06:37:06.655Z,10.02
2022-10-10T06:39:35.275Z,9.97
2022-10-10T06:42:04.143Z,9.97
2022-10-10T06:44:33.185Z,9.98
2022-10-10T06:47:02.976Z,10.00
2022-10-10T06:49:32.254Z,10.06
2022-10-10T06:52:00.669Z,10.13
2022-10-10T06:54:29.141Z,10.20
2022-10-10T06:56:57.536Z,10.29
2022-10-10T06:59:26.934Z,10.31
2022-10-10T07:01:55.749Z,10.35
2022-10-10T07:04:26.030Z,10.40
2022-10-10T07:06:54.971Z,10.51
2022-10-10T07:09:23.400Z,10.62
2022-10-10T07:11:52.663Z,10.72
2022-10-10T07:14:21.019Z,10.77
2022-10-10T07:16:50.166Z,10.88
2022-10-10T07:19:19.086Z,11.00
2022-10-10T07:21:48.927Z,11.03
2022-10-10T07:24:17.678Z,11.13
2022-10-10T07:26:46.979Z,11.21
2022-10-10T07:29:15.927Z,11.29
2022-10-10T07:31:44.967Z,11.42
2022-10-10T07:34:13.834Z,11.55
2022-10-10T07:36:42.215Z,11.68
2022-10-10T07:39:16.926Z,11.77
2022-10-10T07:41:45.997Z,11.82
2022-10-10T07:44:14.966Z,11.92
2022-10-10T07:46:43.835Z,11.95
2022-10-10T07:49:12.441Z,12.02
2022-10-10T07:51:40.884Z,12.11
2022-10-10T07:54:11.187Z,12.19
2022-10-10T07:56:41.314Z,12.25
2022-10-10T07:59:09.752Z,12.33
2022-10-10T08:01:38.283Z,12.36
2022-10-10T08:04:06.733Z,12.39
2022-10-10T08:06:35.238Z,12.46
2022-10-10T08:09:04.924Z,12.53
2022-10-10T08:11:33.304Z,12.57
2022-10-10T08:14:03.700Z,12.60
2022-10-10T08:16:32.109Z,12.65
2022-10-10T08:19:00.949Z,12.60
2022-10-10T08:21:29.503Z,12.57
2022-10-10T08:23:58.257Z,12.52
2022-10-10T08:26:26.621Z,12.54
2022-10-10T08:28:55.446Z,12.66
2022-10-10T08:31:25.169Z,12.80
2022-10-10T08:33:54.616Z,12.88
2022-10-10T08:36:25.072Z,12.90
2022-10-10T08:38:57.449Z,12.98
2022-10-10T08:41:34.110Z,13.05
2022-10-10T08:44:08.282Z,12.98
2022-10-10T08:46:42.079Z,13.05
2022-10-10T08:49:22.178Z,13.13
2022-10-10T08:51:58.032Z,13.28
2022-10-10T08:54:29.717Z,13.40
2022-10-10T08:57:03.102Z,13.49
2022-10-10T08:59:36.513Z,13.51
2022-10-10T09:02:43.613Z,13.59
2022-10-10T09:05:19.801Z,13.68
2022-10-10T09:08:13.503Z,13.77
2022-10-10T09:10:52.722Z,13.69
2022-10-10T09:13:32.123Z,13.70
2022-10-10T09:16:03.543Z,13.69
2022-10-10T09:18:47.012Z,13.89
2022-10-10T09:21:19.769Z,13.90
2022-10-10T09:23:52.933Z,13.92
2022-10-10T09:26:26.142Z,13.92
2022-10-10T09:29:02.896Z,14.03
2022-10-10T09:31:36.146Z,14.03
2022-10-10T09:34:13.871Z,14.01
2022-10-10T09:36:42.668Z,14.13
2022-10-10T09:39:22.166Z,14.26
2022-10-10T09:41:56.686Z,14.57
2022-10-10T09:44:25.571Z,14.85
2022-10-10T09:46:55.178Z,15.07
2022-10-10T09:49:25.843Z,15.39
2022-10-10T09:51:54.325Z,15.54
2022-10-10T09:54:25.045Z,15.66
2022-10-10T09:56:57.426Z,15.78
2022-10-10T09:59:40.997Z,15.96
2022-10-10T10:02:18.830Z,16.42
2022-10-10T10:04:50.710Z,16.64
2022-10-10T10:07:22.078Z,16.62
2022-10-10T10:09:52.027Z,16.64
2022-10-10T10:12:25.055Z,17.01
2022-10-10T10:15:00.386Z,17.57
2022-10-10T10:17:29.947Z,17.89
2022-10-10T10:20:00.010Z,18.03
2022-10-10T10:22:34.006Z,18.35
2022-10-10T10:25:33.753Z,18.73
2022-10-10T10:28:22.169Z,19.11
2022-10-10T10:30:54.521Z,19.31
2022-10-10T10:33:39.759Z,19.53
2022-10-10T10:36:23.126Z,19.81
2022-10-10T10:38:58.769Z,20.04
2022-10-10T10:41:36.223Z,20.20
2022-10-10T10:44:23.875Z,20.41
2022-10-10T10:47:06.226Z,20.61
2022-10-10T10:49:38.078Z,20.83
2022-10-10T10:52:31.167Z,20.63
2022-10-10T10:55:15.952Z,20.42
2022-10-10T10:58:37.100Z,20.79
2022-10-10T11:01:23.689Z,21.17
2022-10-10T11:05:20.936Z,21.45
2022-10-10T11:07:18.843Z,21.70
2022-10-10T11:09:55.197Z,21.82
2022-10-10T11:12:35.350Z,21.88
2022-10-10T11:15:10.874Z,22.26
2022-10-10T11:17:45.321Z,22.46
2022-10-10T11:20:24.034Z,22.63
2022-10-10T11:22:57.863Z,22.84
2022-10-10T11:25:33.371Z,23.09
2022-10-10T11:28:08.167Z,23.36
2022-10-10T11:30:42.508Z,23.35
2022-10-10T11:33:17.219Z,23.43
2022-10-10T11:35:50.954Z,23.60
2022-10-10T11:38:24.931Z,23.80
2022-10-10T11:41:00.191Z,24.08
2022-10-10T11:43:42.046Z,24.22
2022-10-10T11:46:20.226Z,24.28
2022-10-10T11:48:56.067Z,24.24
2022-10-10T11:51:36.975Z,23.95
2022-10-10T11:54:12.884Z,23.40
2022-10-10T11:56:46.158Z,23.07
2022-10-10T11:59:22.515Z,23.08
2022-10-10T12:01:55.817Z,23.18
2022-10-10T12:04:25.020Z,23.42
2022-10-10T12:06:59.656Z,23.43
2022-10-10T12:09:34.795Z,22.99
2022-10-10T12:12:09.762Z,23.25
2022-10-10T12:14:42.752Z,22.98
2022-10-10T12:17:20.967Z,23.21
2022-10-10T12:19:51.769Z,23.41
2022-10-10T12:22:26.155Z,23.64
2022-10-10T12:25:21.601Z,23.79
2022-10-10T12:28:23.384Z,23.89
2022-10-10T12:31:28.303Z,23.64
2022-10-10T12:34:02.838Z,23.34
2022-10-10T12:36:57.018Z,23.08
2022-10-10T12:40:02.606Z,22.96
2022-10-10T12:42:33.528Z,22.75
2022-10-10T12:45:03.480Z,22.53
2022-10-10T12:48:04.335Z,22.37
2022-10-10T12:50:37.116Z,22.05
2022-10-10T12:53:08.099Z,21.82
2022-10-10T12:55:43.630Z,21.73
2022-10-10T12:58:26.487Z,21.65
2022-10-10T13:00:59.633Z,21.50
2022-10-10T13:03:34.246Z,21.34
2022-10-10T13:06:09.077Z,21.16
2022-10-10T13:08:41.519Z,21.04
2022-10-10T13:11:12.212Z,20.78
2022-10-10T13:13:41.902Z,20.68
2022-10-10T13:16:15.522Z,20.62
2022-10-10T13:18:53.272Z,20.65
2022-10-10T13:21:24.781Z,20.59
2022-10-10T13:26:48.305Z,20.57
2022-10-10T13:29:25.322Z,20.56
2022-10-10T13:31:59.913Z,20.55
2022-10-10T13:34:32.546Z,20.60
2022-10-10T13:37:04.138Z,20.51
2022-10-10T13:39:35.550Z,20.45
2022-10-10T13:42:05.750Z,20.46
2022-10-10T13:44:49.326Z,20.45
2022-10-10T13:47:53.635Z,20.31
2022-10-10T13:50:28.642Z,20.19
2022-10-10T13:53:24.293Z,20.19
2022-10-10T13:56:03.710Z,20.08
2022-10-10T13:58:34.310Z,20.00
2022-10-10T14:01:04.610Z,19.93
2022-10-10T14:03:35.939Z,19.83
2022-10-10T14:06:04.502Z,19.70
2022-10-10T14:08:34.875Z,19.63
2022-10-10T14:11:07.150Z,19.54
2022-10-10T14:13:39.213Z,19.33
2022-10-10T14:16:13.053Z,19.41
2022-10-10T14:18:42.786Z,19.38
2022-10-10T14:21:11.946Z,19.36
2022-10-10T14:23:41.027Z,19.33
2022-10-10T14:26:15.775Z,19.31
2022-10-10T14:28:44.794Z,19.12
2022-10-10T14:31:14.688Z,19.03
2022-10-10T14:33:44.445Z,19.08
2022-10-10T14:36:14.738Z,19.09
2022-10-10T14:38:43.098Z,19.06
2022-10-10T14:41:14.076Z,19.01
2022-10-10T14:43:45.933Z,19.02
2022-10-10T14:46:19.335Z,18.99
2022-10-10T14:48:49.508Z,18.94
2022-10-10T14:51:33.978Z,18.94
2022-10-10T14:54:12.030Z,18.92
2022-10-10T14:57:07.714Z,18.95
2022-10-10T14:59:47.433Z,18.91
2022-10-10T15:02:20.414Z,18.90
2022-10-10T15:04:50.602Z,18.82
2022-10-10T15:07:19.908Z,18.75
2022-10-10T15:10:30.896Z,18.72
2022-10-10T15:12:40.542Z,18.59
2022-10-10T15:15:10.370Z,18.55
2022-10-10T15:17:39.891Z,18.51
2022-10-10T15:20:12.429Z,18.44
2022-10-10T15:22:41.670Z,18.44
2022-10-10T15:25:10.967Z,18.46
2022-10-10T15:27:39.466Z,18.51
2022-10-10T15:30:09.901Z,18.48
2022-10-10T15:32:42.367Z,18.43
2022-10-10T15:35:15.315Z,18.40
2022-10-10T15:37:44.246Z,18.42
2022-10-10T15:40:15.325Z,18.37
2022-10-10T15:42:44.161Z,18.37
2022-10-10T15:45:12.763Z,18.30
2022-10-10T15:47:46.414Z,18.22
2022-10-10T15:50:18.110Z,18.27
2022-10-10T15:52:48.865Z,18.31
2022-10-10T15:55:17.322Z,18.26
2022-10-10T15:57:45.736Z,18.19
2022-10-10T16:00:15.710Z,18.13
2022-10-10T16:02:44.162Z,17.99
2022-10-10T16:05:12.887Z,17.92
2022-10-10T16:07:47.923Z,17.86
2022-10-10T16:10:17.668Z,17.81
2022-10-10T16:12:46.950Z,17.81
2022-10-10T16:15:15.411Z,17.78
2022-10-10T16:17:44.423Z,17.72
2022-10-10T16:20:14.038Z,17.82
2022-10-10T16:22:44.194Z,17.74
2022-10-10T16:25:27.827Z,17.65
2022-10-10T16:27:56.743Z,17.62
2022-10-10T16:30:25.149Z,17.59
2022-10-10T16:32:54.562Z,17.52
2022-10-10T16:35:23.067Z,17.50
2022-10-10T16:37:53.167Z,17.45
2022-10-10T16:40:21.587Z,17.45
2022-10-10T16:42:50.333Z,17.44
2022-10-10T16:45:18.908Z,17.39
2022-10-10T16:47:47.323Z,17.29
2022-10-10T16:50:16.062Z,17.29
2022-10-10T16:52:44.429Z,17.24
2022-10-10T16:55:14.819Z,17.25
2022-10-10T16:57:43.667Z,17.25
2022-10-10T17:00:13.453Z,17.27
2022-10-10T17:02:42.810Z,17.21
2022-10-10T17:05:11.698Z,17.17
2022-10-10T17:07:40.273Z,17.11
2022-10-10T17:10:10.310Z,17.07
2022-10-10T17:12:40.521Z,17.12
2022-10-10T17:15:09.924Z,17.17
2022-10-10T17:17:39.293Z,17.22
2022-10-10T17:20:08.317Z,17.26
2022-10-10T17:22:37.806Z,17.29
2022-10-10T17:25:07.677Z,17.30
2022-10-10T17:27:36.719Z,17.16
2022-10-10T17:30:10.137Z,17.12
2022-10-10T17:32:41.849Z,17.09
2022-10-10T17:35:11.919Z,16.96
2022-10-10T17:37:40.375Z,17.02
2022-10-10T17:40:10.497Z,17.00
2022-10-10T17:42:38.873Z,17.04
2022-10-10T17:45:10.774Z,17.06
2022-10-10T17:47:39.252Z,17.08
2022-10-10T17:50:08.751Z,17.08
2022-10-10T17:52:38.148Z,17.04
2022-10-10T17:55:07.844Z,16.84
2022-10-10T17:57:36.373Z,16.92
2022-10-10T18:00:05.961Z,16.93
2022-10-10T18:02:36.164Z,16.85
2022-10-10T18:05:04.865Z,16.73
2022-10-10T18:07:34.193Z,16.78
2022-10-10T18:10:02.646Z,16.80
2022-10-10T18:12:31.256Z,16.70
2022-10-10T18:15:00.504Z,16.64
2022-10-10T18:17:29.459Z,16.66
2022-10-10T18:19:59.283Z,16.70
2022-10-10T18:22:27.806Z,16.73
2022-10-10T18:24:56.654Z,16.73
2022-10-10T18:27:27.173Z,16.71
2022-10-10T18:29:55.563Z,16.70
2022-10-10T18:32:25.040Z,16.69
2022-10-10T18:34:53.553Z,16.70
2022-10-10T18:37:23.817Z,16.69
2022-10-10T18:39:52.850Z,16.67
2022-10-10T18:42:21.201Z,16.62
2022-10-10T18:44:50.403Z,16.56
2022-10-10T18:47:21.502Z,16.44
2022-10-10T18:49:50.611Z,16.28
2022-10-10T18:52:19.162Z,16.23
2022-10-10T18:54:50.873Z,16.23
2022-10-10T18:57:19.410Z,16.26
2022-10-10T18:59:48.546Z,16.27
2022-10-10T19:02:17.529Z,16.26
2022-10-10T19:04:48.269Z,16.23
2022-10-10T19:07:16.734Z,16.17
2022-10-10T19:09:46.091Z,16.15
2022-10-10T19:12:15.869Z,16.12
2022-10-10T19:14:45.141Z,16.11
2022-10-10T19:17:14.066Z,16.06
2022-10-10T19:19:42.578Z,16.00
2022-10-10T19:22:11.563Z,15.97
2022-10-10T19:24:39.988Z,15.89
2022-10-10T19:27:08.769Z,15.87
2022-10-10T19:29:38.533Z,15.81
2022-10-10T19:32:07.465Z,15.79
2022-10-10T19:34:38.160Z,15.78
2022-10-10T19:37:06.704Z,15.68
2022-10-10T19:39:35.929Z,15.66
2022-10-10T19:42:04.556Z,15.62
2022-10-10T19:44:33.991Z,15.53
2022-10-10T19:47:03.748Z,15.54
2022-10-10T19:49:33.338Z,15.53
2022-10-10T19:52:01.906Z,15.51
2022-10-10T19:54:30.621Z,15.49
2022-10-10T19:56:59.033Z,15.42
2022-10-10T19:59:27.848Z,15.30
2022-10-10T20:01:56.318Z,15.23
2022-10-10T20:04:26.941Z,15.19
2022-10-10T20:06:55.326Z,15.09
2022-10-10T20:09:26.030Z,15.12
2022-10-10T20:11:54.958Z,15.12
2022-10-10T20:14:23.322Z,15.13
2022-10-10T20:16:52.891Z,15.11
2022-10-10T20:19:21.377Z,15.10
2022-10-10T20:21:51.739Z,15.07
2022-10-10T20:24:21.500Z,15.05
2022-10-10T20:26:49.883Z,15.01
2022-10-10T20:29:19.061Z,15.01
2022-10-10T20:31:47.923Z,14.98
2022-10-10T20:34:16.327Z,14.94
2022-10-10T20:36:45.170Z,14.86
2022-10-10T20:39:15.570Z,14.78
2022-10-10T20:41:44.574Z,14.70
2022-10-10T20:44:14.527Z,14.64
2022-10-10T20:46:46.181Z,14.60
2022-10-10T20:49:19.383Z,14.57
2022-10-10T20:51:50.613Z,14.51
2022-10-10T20:54:22.424Z,14.43
2022-10-10T20:56:50.889Z,14.36
2022-10-10T20:59:21.445Z,14.40
2022-10-10T21:01:49.992Z,14.35
2022-10-10T21:04:18.875Z,14.35
2022-10-10T21:06:47.266Z,14.35
2022-10-10T21:09:17.031Z,14.34
2022-10-10T21:11:50.556Z,14.16
2022-10-10T21:14:19.675Z,13.96
2022-10-10T21:16:50.970Z,13.99
2022-10-10T21:19:19.511Z,14.07
2022-10-10T21:21:48.735Z,14.03
2022-10-10T21:24:17.277Z,13.90
2022-10-10T21:26:49.499Z,14.00
2022-10-10T21:29:18.549Z,13.97
2022-10-10T21:31:47.146Z,13.97
2022-10-10T21:34:18.643Z,13.95
2022-10-10T21:36:48.242Z,13.94
2022-10-10T21:39:16.701Z,13.92
2022-10-10T21:41:45.545Z,13.93
2022-10-10T21:44:15.859Z,13.89
2022-10-10T21:46:45.184Z,13.88
2022-10-10T21:49:15.111Z,13.85
2022-10-10T21:51:46.432Z,13.87
2022-10-10T21:54:16.113Z,13.82
2022-10-10T21:56:44.935Z,13.71
2022-10-10T21:59:13.730Z,13.73
2022-10-10T22:01:44.398Z,13.71
2022-10-10T22:04:13.537Z,13.68
2022-10-10T22:06:42.262Z,13.63
2022-10-10T22:09:11.385Z,13.59
2022-10-10T22:11:40.543Z,13.56
2022-10-10T22:14:09.354Z,13.55
2022-10-10T22:16:38.276Z,13.48
2022-10-10T22:19:08.521Z,13.46
2022-10-10T22:21:36.943Z,13.49
2022-10-10T22:24:08.472Z,13.48
2022-10-10T22:26:37.374Z,13.43
2022-10-10T22:29:06.681Z,13.36
2022-10-10T22:31:37.729Z,13.29
2022-10-10T22:34:08.582Z,13.30
2022-10-10T22:36:37.012Z,13.34
2022-10-10T22:39:06.420Z,13.35
2022-10-10T22:41:34.781Z,13.39
2022-10-10T22:44:03.977Z,13.37
2022-10-10T22:46:32.398Z,13.38
2022-10-10T22:49:01.346Z,13.34
2022-10-10T22:51:31.488Z,13.32
2022-10-10T22:54:00.422Z,13.31
2022-10-10T22:56:28.894Z,13.28
2022-10-10T22:58:57.370Z,13.17
2022-10-10T23:01:27.999Z,13.02
2022-10-10T23:04:00.138Z,13.13
2022-10-10T23:06:29.677Z,13.13
2022-10-10T23:08:59.493Z,13.20
2022-10-10T23:11:28.446Z,13.15
2022-10-10T23:13:57.194Z,13.10
2022-10-10T23:16:25.634Z,13.07
2022-10-10T23:18:54.927Z,13.03
2022-10-10T23:21:23.622Z,12.97
2022-10-10T23:23:53.121Z,12.94
2022-10-10T23:26:23.185Z,12.95
2022-10-10T23:28:52.175Z,12.97
2022-10-10T23:31:21.023Z,12.90
2022-10-10T23:33:49.409Z,12.92
2022-10-10T23:36:18.627Z,12.86
2022-10-10T23:38:47.198Z,12.78
2022-10-10T23:41:16.096Z,12.80
2022-10-10T23:43:45.958Z,12.78
2022-10-10T23:46:15.320Z,12.74
2022-10-10T23:49:04.250Z,12.76
2022-10-10T23:51:32.802Z,12.74
2022-10-10T23:54:01.217Z,12.68
2022-10-10T23:56:29.957Z,12.67
2022-10-10T23:59:00.050Z,12.66
